sensor_id;sensor_type;location;lat;lon;timestamp;P1;durP1;ratioP1;P2;durP2;ratioP2
37288;SDS011;23174;49.462;11.000;2023-07-31T00:01:46;3.40;;;1.17;;
37288;SDS011;23174;49.462;11.000;2023-07-31T00:03:47;3.83;;;1.40;;
37288;SDS011;23174;49.462;11.000;2023-07-31T00:05:47;2.15;;;1.00;;
37288;SDS011;23174;49.462;11.000;2023-07-31T00:07:48;3.45;;;1.20;;
37288;SDS011;23174;49.462;11.000;2023-07-31T00:09:48;2.70;;;1.38;;
37288;SDS011;23174;49.462;11.000;2023-07-31T00:11:49;3.67;;;1.50;;
37288;SDS011;23174;49.462;11.000;2023-07-31T00:13:49;3.58;;;1.30;;
37288;SDS011;23174;49.462;11.000;2023-07-31T00:15:50;3.38;;;1.20;;
37288;SDS011;23174;49.462;11.000;2023-07-31T00:17:50;2.47;;;1.30;;
37288;SDS011;23174;49.462;11.000;2023-07-31T00:19:51;2.33;;;1.20;;
37288;SDS011;23174;49.462;11.000;2023-07-31T00:21:51;2.50;;;1.40;;
37288;SDS011;23174;49.462;11.000;2023-07-31T00:23:52;2.90;;;1.30;;
37288;SDS011;23174;49.462;11.000;2023-07-31T00:25:52;4.90;;;1.42;;
37288;SDS011;23174;49.462;11.000;2023-07-31T00:27:52;3.85;;;1.30;;
37288;SDS011;23174;49.462;11.000;2023-07-31T00:29:53;3.10;;;1.70;;
37288;SDS011;23174;49.462;11.000;2023-07-31T00:31:53;2.72;;;1.17;;
37288;SDS011;23174;49.462;11.000;2023-07-31T00:33:54;5.50;;;1.15;;
37288;SDS011;23174;49.462;11.000;2023-07-31T00:35:54;1.77;;;1.10;;
37288;SDS011;23174;49.462;11.000;2023-07-31T00:37:56;3.30;;;1.50;;
37288;SDS011;23174;49.462;11.000;2023-07-31T00:39:57;3.95;;;1.48;;
37288;SDS011;23174;49.462;11.000;2023-07-31T00:41:58;1.50;;;1.30;;
37288;SDS011;23174;49.462;11.000;2023-07-31T00:43:59;3.05;;;1.52;;
37288;SDS011;23174;49.462;11.000;2023-07-31T00:45:59;3.25;;;1.40;;
37288;SDS011;23174;49.462;11.000;2023-07-31T00:48:00;1.98;;;1.33;;
37288;SDS011;23174;49.462;11.000;2023-07-31T00:50:01;2.33;;;1.33;;
37288;SDS011;23174;49.462;11.000;2023-07-31T00:52:02;6.35;;;1.60;;
37288;SDS011;23174;49.462;11.000;2023-07-31T00:54:03;6.50;;;1.48;;
37288;SDS011;23174;49.462;11.000;2023-07-31T00:56:04;2.08;;;1.45;;
37288;SDS011;23174;49.462;11.000;2023-07-31T00:58:05;4.70;;;1.45;;
37288;SDS011;23174;49.462;11.000;2023-07-31T01:00:05;3.03;;;1.30;;
37288;SDS011;23174;49.462;11.000;2023-07-31T01:02:07;4.53;;;1.73;;
37288;SDS011;23174;49.462;11.000;2023-07-31T01:04:08;5.38;;;1.40;;
37288;SDS011;23174;49.462;11.000;2023-07-31T01:06:14;4.38;;;1.48;;
37288;SDS011;23174;49.462;11.000;2023-07-31T01:08:24;3.85;;;1.17;;
37288;SDS011;23174;49.462;11.000;2023-07-31T01:10:49;5.38;;;1.30;;
37288;SDS011;23174;49.462;11.000;2023-07-31T01:12:54;4.20;;;1.50;;
37288;SDS011;23174;49.462;11.000;2023-07-31T01:15:02;2.50;;;1.10;;
37288;SDS011;23174;49.462;11.000;2023-07-31T01:17:02;3.10;;;1.10;;
37288;SDS011;23174;49.462;11.000;2023-07-31T01:19:03;2.95;;;1.13;;
37288;SDS011;23174;49.462;11.000;2023-07-31T01:26:21;2.40;;;1.17;;
37288;SDS011;23174;49.462;11.000;2023-07-31T01:28:38;5.60;;;1.35;;
37288;SDS011;23174;49.462;11.000;2023-07-31T01:32:48;1.63;;;1.10;;
37288;SDS011;23174;49.462;11.000;2023-07-31T01:34:49;1.88;;;1.35;;
37288;SDS011;23174;49.462;11.000;2023-07-31T01:36:51;2.35;;;0.93;;
37288;SDS011;23174;49.462;11.000;2023-07-31T01:38:51;2.05;;;1.38;;
37288;SDS011;23174;49.462;11.000;2023-07-31T01:40:52;1.80;;;1.23;;
37288;SDS011;23174;49.462;11.000;2023-07-31T01:42:53;2.03;;;0.90;;
37288;SDS011;23174;49.462;11.000;2023-07-31T01:44:54;2.35;;;1.33;;
37288;SDS011;23174;49.462;11.000;2023-07-31T01:46:54;4.35;;;1.17;;
37288;SDS011;23174;49.462;11.000;2023-07-31T01:48:55;2.40;;;1.20;;
37288;SDS011;23174;49.462;11.000;2023-07-31T01:50:55;2.65;;;1.23;;
37288;SDS011;23174;49.462;11.000;2023-07-31T01:52:55;9.57;;;1.67;;
37288;SDS011;23174;49.462;11.000;2023-07-31T01:54:56;5.38;;;1.70;;
37288;SDS011;23174;49.462;11.000;2023-07-31T01:56:56;2.60;;;1.27;;
37288;SDS011;23174;49.462;11.000;2023-07-31T01:58:57;3.85;;;1.63;;
37288;SDS011;23174;49.462;11.000;2023-07-31T02:00:57;1.17;;;1.02;;
37288;SDS011;23174;49.462;11.000;2023-07-31T02:02:59;6.75;;;1.77;;
37288;SDS011;23174;49.462;11.000;2023-07-31T02:04:59;2.13;;;1.33;;
37288;SDS011;23174;49.462;11.000;2023-07-31T02:07:00;2.72;;;1.42;;
37288;SDS011;23174;49.462;11.000;2023-07-31T02:09:00;3.25;;;1.25;;
37288;SDS011;23174;49.462;11.000;2023-07-31T02:11:01;2.20;;;1.60;;
37288;SDS011;23174;49.462;11.000;2023-07-31T02:13:01;2.45;;;1.20;;
37288;SDS011;23174;49.462;11.000;2023-07-31T02:15:03;1.08;;;0.82;;
37288;SDS011;23174;49.462;11.000;2023-07-31T02:17:04;1.60;;;0.95;;
37288;SDS011;23174;49.462;11.000;2023-07-31T02:19:05;1.35;;;0.95;;
37288;SDS011;23174;49.462;11.000;2023-07-31T02:21:05;2.00;;;1.30;;
37288;SDS011;23174;49.462;11.000;2023-07-31T02:23:06;3.20;;;1.20;;
37288;SDS011;23174;49.462;11.000;2023-07-31T02:25:07;2.15;;;1.30;;
37288;SDS011;23174;49.462;11.000;2023-07-31T02:27:07;3.95;;;1.20;;
37288;SDS011;23174;49.462;11.000;2023-07-31T02:29:08;2.58;;;1.50;;
37288;SDS011;23174;49.462;11.000;2023-07-31T02:31:09;1.77;;;1.17;;
37288;SDS011;23174;49.462;11.000;2023-07-31T02:33:09;5.60;;;1.40;;
37288;SDS011;23174;49.462;11.000;2023-07-31T02:35:09;3.03;;;1.42;;
37288;SDS011;23174;49.462;11.000;2023-07-31T02:37:11;3.35;;;1.15;;
37288;SDS011;23174;49.462;11.000;2023-07-31T02:39:11;2.13;;;1.00;;
37288;SDS011;23174;49.462;11.000;2023-07-31T02:41:12;2.60;;;1.30;;
37288;SDS011;23174;49.462;11.000;2023-07-31T02:43:12;4.78;;;1.15;;
37288;SDS011;23174;49.462;11.000;2023-07-31T02:45:13;1.42;;;1.20;;
37288;SDS011;23174;49.462;11.000;2023-07-31T02:47:14;3.55;;;1.67;;
37288;SDS011;23174;49.462;11.000;2023-07-31T02:49:14;1.48;;;1.10;;
37288;SDS011;23174;49.462;11.000;2023-07-31T02:51:14;4.68;;;1.30;;
37288;SDS011;23174;49.462;11.000;2023-07-31T02:53:15;2.42;;;1.17;;
37288;SDS011;23174;49.462;11.000;2023-07-31T02:55:16;1.63;;;1.08;;
37288;SDS011;23174;49.462;11.000;2023-07-31T02:57:16;1.98;;;0.98;;
37288;SDS011;23174;49.462;11.000;2023-07-31T02:59:17;3.30;;;1.10;;
37288;SDS011;23174;49.462;11.000;2023-07-31T03:01:18;3.45;;;1.30;;
37288;SDS011;23174;49.462;11.000;2023-07-31T03:03:18;4.63;;;1.35;;
37288;SDS011;23174;49.462;11.000;2023-07-31T03:05:19;3.50;;;1.27;;
37288;SDS011;23174;49.462;11.000;2023-07-31T03:07:19;1.90;;;1.25;;
37288;SDS011;23174;49.462;11.000;2023-07-31T03:09:20;1.92;;;1.30;;
37288;SDS011;23174;49.462;11.000;2023-07-31T03:11:20;2.88;;;1.20;;
37288;SDS011;23174;49.462;11.000;2023-07-31T03:13:21;1.77;;;0.93;;
37288;SDS011;23174;49.462;11.000;2023-07-31T03:15:21;2.10;;;1.30;;
37288;SDS011;23174;49.462;11.000;2023-07-31T03:17:22;2.08;;;1.13;;
37288;SDS011;23174;49.462;11.000;2023-07-31T03:19:22;3.33;;;1.38;;
37288;SDS011;23174;49.462;11.000;2023-07-31T03:21:23;2.33;;;1.27;;
37288;SDS011;23174;49.462;11.000;2023-07-31T03:23:23;2.70;;;1.40;;
37288;SDS011;23174;49.462;11.000;2023-07-31T03:25:25;1.52;;;1.20;;
37288;SDS011;23174;49.462;11.000;2023-07-31T03:27:25;2.88;;;1.30;;
37288;SDS011;23174;49.462;11.000;2023-07-31T03:29:26;1.35;;;1.02;;
37288;SDS011;23174;49.462;11.000;2023-07-31T03:31:26;7.65;;;2.22;;
37288;SDS011;23174;49.462;11.000;2023-07-31T03:33:27;1.77;;;1.30;;
37288;SDS011;23174;49.462;11.000;2023-07-31T03:35:27;2.67;;;1.10;;
37288;SDS011;23174;49.462;11.000;2023-07-31T03:37:28;2.42;;;1.33;;
37288;SDS011;23174;49.462;11.000;2023-07-31T03:39:29;2.60;;;1.30;;
37288;SDS011;23174;49.462;11.000;2023-07-31T03:41:29;1.50;;;1.40;;
37288;SDS011;23174;49.462;11.000;2023-07-31T03:43:30;1.63;;;1.20;;
37288;SDS011;23174;49.462;11.000;2023-07-31T03:45:30;2.55;;;1.20;;
37288;SDS011;23174;49.462;11.000;2023-07-31T03:47:31;5.40;;;1.33;;
37288;SDS011;23174;49.462;11.000;2023-07-31T03:49:31;3.10;;;1.73;;
37288;SDS011;23174;49.462;11.000;2023-07-31T03:51:32;4.60;;;1.40;;
37288;SDS011;23174;49.462;11.000;2023-07-31T03:53:32;2.58;;;1.48;;
37288;SDS011;23174;49.462;11.000;2023-07-31T03:55:33;1.42;;;1.27;;
37288;SDS011;23174;49.462;11.000;2023-07-31T03:57:33;3.95;;;1.50;;
37288;SDS011;23174;49.462;11.000;2023-07-31T03:59:34;3.70;;;1.67;;
37288;SDS011;23174;49.462;11.000;2023-07-31T04:01:34;2.58;;;1.30;;
37288;SDS011;23174;49.462;11.000;2023-07-31T04:03:34;1.48;;;0.40;;
37288;SDS011;23174;49.462;11.000;2023-07-31T04:05:37;0.15;;;0.15;;
37288;SDS011;23174;49.462;11.000;2023-07-31T04:07:38;0.40;;;0.40;;
37288;SDS011;23174;49.462;11.000;2023-07-31T04:09:39;0.70;;;0.43;;
37288;SDS011;23174;49.462;11.000;2023-07-31T04:11:39;0.30;;;0.30;;
37288;SDS011;23174;49.462;11.000;2023-07-31T04:13:40;0.57;;;0.40;;
37288;SDS011;23174;49.462;11.000;2023-07-31T04:15:41;0.30;;;0.30;;
37288;SDS011;23174;49.462;11.000;2023-07-31T04:17:41;1.40;;;0.60;;
37288;SDS011;23174;49.462;11.000;2023-07-31T04:19:42;0.77;;;0.50;;
37288;SDS011;23174;49.462;11.000;2023-07-31T04:21:42;0.00;;;0.00;;
37288;SDS011;23174;49.462;11.000;2023-07-31T04:23:43;0.10;;;0.10;;
37288;SDS011;23174;49.462;11.000;2023-07-31T04:25:43;0.10;;;0.10;;
37288;SDS011;23174;49.462;11.000;2023-07-31T04:27:44;0.10;;;0.10;;
37288;SDS011;23174;49.462;11.000;2023-07-31T04:29:44;0.80;;;0.73;;
37288;SDS011;23174;49.462;11.000;2023-07-31T04:31:47;0.73;;;0.38;;
37288;SDS011;23174;49.462;11.000;2023-07-31T04:33:48;0.38;;;0.38;;
37288;SDS011;23174;49.462;11.000;2023-07-31T04:35:52;0.85;;;0.40;;
37288;SDS011;23174;49.462;11.000;2023-07-31T04:37:53;0.20;;;0.20;;
37288;SDS011;23174;49.462;11.000;2023-07-31T04:39:54;1.05;;;0.32;;
37288;SDS011;23174;49.462;11.000;2023-07-31T04:41:54;0.50;;;0.50;;
37288;SDS011;23174;49.462;11.000;2023-07-31T04:43:55;0.43;;;0.43;;
37288;SDS011;23174;49.462;11.000;2023-07-31T04:45:55;0.30;;;0.30;;
37288;SDS011;23174;49.462;11.000;2023-07-31T04:47:56;0.55;;;0.20;;
37288;SDS011;23174;49.462;11.000;2023-07-31T04:49:56;0.17;;;0.17;;
37288;SDS011;23174;49.462;11.000;2023-07-31T04:51:56;0.70;;;0.63;;
37288;SDS011;23174;49.462;11.000;2023-07-31T04:53:57;0.70;;;0.70;;
37288;SDS011;23174;49.462;11.000;2023-07-31T04:55:57;0.30;;;0.30;;
37288;SDS011;23174;49.462;11.000;2023-07-31T04:57:58;1.55;;;0.35;;
37288;SDS011;23174;49.462;11.000;2023-07-31T04:59:59;0.45;;;0.45;;
37288;SDS011;23174;49.462;11.000;2023-07-31T05:01:59;0.52;;;0.52;;
37288;SDS011;23174;49.462;11.000;2023-07-31T05:04:00;0.60;;;0.55;;
37288;SDS011;23174;49.462;11.000;2023-07-31T05:06:00;0.70;;;0.50;;
37288;SDS011;23174;49.462;11.000;2023-07-31T05:08:01;0.20;;;0.20;;
37288;SDS011;23174;49.462;11.000;2023-07-31T05:10:01;0.40;;;0.40;;
37288;SDS011;23174;49.462;11.000;2023-07-31T05:12:04;0.30;;;0.30;;
37288;SDS011;23174;49.462;11.000;2023-07-31T05:14:04;0.43;;;0.30;;
37288;SDS011;23174;49.462;11.000;2023-07-31T05:16:05;0.47;;;0.40;;
37288;SDS011;23174;49.462;11.000;2023-07-31T05:18:05;0.45;;;0.45;;
37288;SDS011;23174;49.462;11.000;2023-07-31T05:20:06;2.35;;;0.80;;
37288;SDS011;23174;49.462;11.000;2023-07-31T05:22:07;0.65;;;0.65;;
37288;SDS011;23174;49.462;11.000;2023-07-31T05:24:07;0.63;;;0.50;;
37288;SDS011;23174;49.462;11.000;2023-07-31T05:26:08;0.63;;;0.55;;
37288;SDS011;23174;49.462;11.000;2023-07-31T05:28:12;0.35;;;0.35;;
37288;SDS011;23174;49.462;11.000;2023-07-31T05:30:12;0.32;;;0.32;;
37288;SDS011;23174;49.462;11.000;2023-07-31T05:32:13;0.20;;;0.20;;
37288;SDS011;23174;49.462;11.000;2023-07-31T05:34:13;0.43;;;0.43;;
37288;SDS011;23174;49.462;11.000;2023-07-31T05:36:14;0.40;;;0.40;;
37288;SDS011;23174;49.462;11.000;2023-07-31T05:38:14;1.17;;;0.70;;
37288;SDS011;23174;49.462;11.000;2023-07-31T05:40:15;0.47;;;0.28;;
37288;SDS011;23174;49.462;11.000;2023-07-31T05:42:15;0.47;;;0.30;;
37288;SDS011;23174;49.462;11.000;2023-07-31T05:44:16;0.60;;;0.60;;
37288;SDS011;23174;49.462;11.000;2023-07-31T05:46:16;0.28;;;0.17;;
37288;SDS011;23174;49.462;11.000;2023-07-31T05:48:17;0.38;;;0.20;;
37288;SDS011;23174;49.462;11.000;2023-07-31T05:50:17;0.40;;;0.40;;
37288;SDS011;23174;49.462;11.000;2023-07-31T05:52:18;0.30;;;0.30;;
37288;SDS011;23174;49.462;11.000;2023-07-31T05:54:19;0.00;;;0.00;;
37288;SDS011;23174;49.462;11.000;2023-07-31T05:56:20;0.47;;;0.47;;
37288;SDS011;23174;49.462;11.000;2023-07-31T05:58:20;0.40;;;0.40;;
37288;SDS011;23174;49.462;11.000;2023-07-31T06:00:21;0.50;;;0.50;;
37288;SDS011;23174;49.462;11.000;2023-07-31T06:02:22;0.00;;;0.00;;
37288;SDS011;23174;49.462;11.000;2023-07-31T06:04:23;0.10;;;0.10;;
37288;SDS011;23174;49.462;11.000;2023-07-31T06:06:25;1.20;;;0.43;;
37288;SDS011;23174;49.462;11.000;2023-07-31T06:08:25;0.90;;;0.68;;
37288;SDS011;23174;49.462;11.000;2023-07-31T06:10:26;0.40;;;0.40;;
37288;SDS011;23174;49.462;11.000;2023-07-31T06:12:27;0.50;;;0.50;;
37288;SDS011;23174;49.462;11.000;2023-07-31T06:14:27;0.57;;;0.57;;
37288;SDS011;23174;49.462;11.000;2023-07-31T06:16:28;0.10;;;0.10;;
37288;SDS011;23174;49.462;11.000;2023-07-31T06:18:28;0.73;;;0.73;;
37288;SDS011;23174;49.462;11.000;2023-07-31T06:20:29;2.03;;;0.60;;
37288;SDS011;23174;49.462;11.000;2023-07-31T06:22:29;0.15;;;0.15;;
37288;SDS011;23174;49.462;11.000;2023-07-31T06:24:29;0.28;;;0.20;;
37288;SDS011;23174;49.462;11.000;2023-07-31T06:26:30;0.20;;;0.20;;
37288;SDS011;23174;49.462;11.000;2023-07-31T06:28:31;0.75;;;0.68;;
37288;SDS011;23174;49.462;11.000;2023-07-31T06:30:32;0.32;;;0.13;;
37288;SDS011;23174;49.462;11.000;2023-07-31T06:32:32;0.43;;;0.43;;
37288;SDS011;23174;49.462;11.000;2023-07-31T06:34:33;0.38;;;0.35;;
37288;SDS011;23174;49.462;11.000;2023-07-31T06:36:33;1.15;;;0.55;;
37288;SDS011;23174;49.462;11.000;2023-07-31T06:38:34;0.28;;;0.17;;
37288;SDS011;23174;49.462;11.000;2023-07-31T06:40:34;0.38;;;0.38;;
37288;SDS011;23174;49.462;11.000;2023-07-31T06:42:35;0.55;;;0.52;;
37288;SDS011;23174;49.462;11.000;2023-07-31T06:44:35;0.77;;;0.43;;
37288;SDS011;23174;49.462;11.000;2023-07-31T06:46:36;0.68;;;0.68;;
37288;SDS011;23174;49.462;11.000;2023-07-31T06:48:36;0.35;;;0.35;;
37288;SDS011;23174;49.462;11.000;2023-07-31T06:50:37;0.30;;;0.30;;
37288;SDS011;23174;49.462;11.000;2023-07-31T06:52:38;0.63;;;0.52;;
37288;SDS011;23174;49.462;11.000;2023-07-31T06:54:38;3.53;;;0.65;;
37288;SDS011;23174;49.462;11.000;2023-07-31T06:56:39;0.30;;;0.30;;
37288;SDS011;23174;49.462;11.000;2023-07-31T06:58:39;0.28;;;0.28;;
37288;SDS011;23174;49.462;11.000;2023-07-31T07:00:40;0.45;;;0.45;;
37288;SDS011;23174;49.462;11.000;2023-07-31T07:02:40;0.73;;;0.63;;
37288;SDS011;23174;49.462;11.000;2023-07-31T07:04:41;0.73;;;0.50;;
37288;SDS011;23174;49.462;11.000;2023-07-31T07:06:41;2.75;;;0.73;;
37288;SDS011;23174;49.462;11.000;2023-07-31T07:08:42;0.52;;;0.52;;
37288;SDS011;23174;49.462;11.000;2023-07-31T07:10:42;0.55;;;0.40;;
37288;SDS011;23174;49.462;11.000;2023-07-31T07:12:43;1.17;;;0.32;;
37288;SDS011;23174;49.462;11.000;2023-07-31T07:14:43;0.45;;;0.32;;
37288;SDS011;23174;49.462;11.000;2023-07-31T07:16:45;1.13;;;0.73;;
37288;SDS011;23174;49.462;11.000;2023-07-31T07:18:51;0.80;;;0.80;;
37288;SDS011;23174;49.462;11.000;2023-07-31T07:20:52;0.93;;;0.75;;
37288;SDS011;23174;49.462;11.000;2023-07-31T07:22:53;1.77;;;0.52;;
37288;SDS011;23174;49.462;11.000;2023-07-31T07:24:54;0.68;;;0.52;;
37288;SDS011;23174;49.462;11.000;2023-07-31T07:26:54;1.30;;;0.95;;
37288;SDS011;23174;49.462;11.000;2023-07-31T07:28:55;0.55;;;0.55;;
37288;SDS011;23174;49.462;11.000;2023-07-31T07:30:55;0.08;;;0.08;;
37288;SDS011;23174;49.462;11.000;2023-07-31T07:32:56;1.38;;;0.57;;
37288;SDS011;23174;49.462;11.000;2023-07-31T07:34:57;0.17;;;0.17;;
37288;SDS011;23174;49.462;11.000;2023-07-31T07:36:57;3.05;;;1.00;;
37288;SDS011;23174;49.462;11.000;2023-07-31T07:39:00;0.30;;;0.30;;
37288;SDS011;23174;49.462;11.000;2023-07-31T07:41:01;0.35;;;0.35;;
37288;SDS011;23174;49.462;11.000;2023-07-31T07:43:01;0.90;;;0.47;;
37288;SDS011;23174;49.462;11.000;2023-07-31T07:45:02;1.98;;;0.63;;
37288;SDS011;23174;49.462;11.000;2023-07-31T07:47:03;0.63;;;0.57;;
37288;SDS011;23174;49.462;11.000;2023-07-31T07:49:06;0.30;;;0.30;;
37288;SDS011;23174;49.462;11.000;2023-07-31T07:51:06;2.45;;;0.65;;
37288;SDS011;23174;49.462;11.000;2023-07-31T07:53:07;1.08;;;0.80;;
37288;SDS011;23174;49.462;11.000;2023-07-31T07:55:07;0.40;;;0.40;;
37288;SDS011;23174;49.462;11.000;2023-07-31T07:57:08;0.30;;;0.30;;
37288;SDS011;23174;49.462;11.000;2023-07-31T07:59:08;0.30;;;0.25;;
37288;SDS011;23174;49.462;11.000;2023-07-31T08:01:09;1.35;;;1.00;;
37288;SDS011;23174;49.462;11.000;2023-07-31T08:03:09;0.25;;;0.25;;
37288;SDS011;23174;49.462;11.000;2023-07-31T08:05:10;0.60;;;0.60;;
37288;SDS011;23174;49.462;11.000;2023-07-31T08:07:11;0.98;;;0.93;;
37288;SDS011;23174;49.462;11.000;2023-07-31T08:09:12;0.30;;;0.25;;
37288;SDS011;23174;49.462;11.000;2023-07-31T08:11:13;0.80;;;0.80;;
37288;SDS011;23174;49.462;11.000;2023-07-31T08:13:13;1.17;;;1.17;;
37288;SDS011;23174;49.462;11.000;2023-07-31T08:15:14;0.43;;;0.43;;
37288;SDS011;23174;49.462;11.000;2023-07-31T08:17:14;1.10;;;0.70;;
37288;SDS011;23174;49.462;11.000;2023-07-31T08:19:15;0.25;;;0.25;;
37288;SDS011;23174;49.462;11.000;2023-07-31T08:21:15;1.42;;;0.77;;
37288;SDS011;23174;49.462;11.000;2023-07-31T08:23:16;1.90;;;1.20;;
37288;SDS011;23174;49.462;11.000;2023-07-31T08:25:17;1.45;;;0.57;;
37288;SDS011;23174;49.462;11.000;2023-07-31T08:27:17;0.77;;;0.73;;
37288;SDS011;23174;49.462;11.000;2023-07-31T08:29:18;1.35;;;0.90;;
37288;SDS011;23174;49.462;11.000;2023-07-31T08:31:18;1.85;;;0.85;;
37288;SDS011;23174;49.462;11.000;2023-07-31T08:33:19;0.73;;;0.73;;
37288;SDS011;23174;49.462;11.000;2023-07-31T08:35:20;0.38;;;0.38;;
37288;SDS011;23174;49.462;11.000;2023-07-31T08:37:20;0.80;;;0.80;;
37288;SDS011;23174;49.462;11.000;2023-07-31T08:39:21;1.25;;;0.95;;
37288;SDS011;23174;49.462;11.000;2023-07-31T08:41:21;0.50;;;0.40;;
37288;SDS011;23174;49.462;11.000;2023-07-31T08:43:22;0.63;;;0.63;;
37288;SDS011;23174;49.462;11.000;2023-07-31T08:45:25;1.15;;;1.05;;
37288;SDS011;23174;49.462;11.000;2023-07-31T08:47:25;0.93;;;0.82;;
37288;SDS011;23174;49.462;11.000;2023-07-31T08:49:27;0.35;;;0.35;;
37288;SDS011;23174;49.462;11.000;2023-07-31T08:51:29;0.40;;;0.40;;
37288;SDS011;23174;49.462;11.000;2023-07-31T08:53:30;1.25;;;0.90;;
37288;SDS011;23174;49.462;11.000;2023-07-31T08:55:30;1.00;;;0.80;;
37288;SDS011;23174;49.462;11.000;2023-07-31T08:57:32;1.27;;;1.15;;
37288;SDS011;23174;49.462;11.000;2023-07-31T08:59:35;2.45;;;0.73;;
37288;SDS011;23174;49.462;11.000;2023-07-31T09:01:38;1.42;;;1.10;;
37288;SDS011;23174;49.462;11.000;2023-07-31T09:03:43;1.45;;;0.95;;
37288;SDS011;23174;49.462;11.000;2023-07-31T09:05:45;0.88;;;0.70;;
37288;SDS011;23174;49.462;11.000;2023-07-31T09:07:47;1.67;;;0.70;;
37288;SDS011;23174;49.462;11.000;2023-07-31T09:09:48;0.73;;;0.73;;
37288;SDS011;23174;49.462;11.000;2023-07-31T09:11:49;0.90;;;0.90;;
37288;SDS011;23174;49.462;11.000;2023-07-31T09:13:50;3.72;;;0.95;;
37288;SDS011;23174;49.462;11.000;2023-07-31T09:15:51;1.85;;;1.17;;
37288;SDS011;23174;49.462;11.000;2023-07-31T09:17:59;1.55;;;0.90;;
37288;SDS011;23174;49.462;11.000;2023-07-31T09:20:14;1.13;;;1.13;;
37288;SDS011;23174;49.462;11.000;2023-07-31T09:22:16;0.90;;;0.90;;
37288;SDS011;23174;49.462;11.000;2023-07-31T09:24:24;0.90;;;0.75;;
37288;SDS011;23174;49.462;11.000;2023-07-31T09:26:30;1.50;;;0.75;;
37288;SDS011;23174;49.462;11.000;2023-07-31T09:28:32;1.13;;;0.93;;
37288;SDS011;23174;49.462;11.000;2023-07-31T09:30:45;1.05;;;0.95;;
37288;SDS011;23174;49.462;11.000;2023-07-31T09:32:50;1.02;;;1.02;;
37288;SDS011;23174;49.462;11.000;2023-07-31T09:37:01;0.90;;;0.90;;
37288;SDS011;23174;49.462;11.000;2023-07-31T09:39:02;0.10;;;0.10;;
37288;SDS011;23174;49.462;11.000;2023-07-31T09:41:03;0.75;;;0.75;;
37288;SDS011;23174;49.462;11.000;2023-07-31T09:43:08;0.40;;;0.40;;
37288;SDS011;23174;49.462;11.000;2023-07-31T09:45:10;0.47;;;0.47;;
37288;SDS011;23174;49.462;11.000;2023-07-31T09:47:20;0.28;;;0.28;;
37288;SDS011;23174;49.462;11.000;2023-07-31T09:49:24;0.68;;;0.60;;
37288;SDS011;23174;49.462;11.000;2023-07-31T09:51:28;3.75;;;1.17;;
37288;SDS011;23174;49.462;11.000;2023-07-31T09:53:30;1.30;;;0.80;;
37288;SDS011;23174;49.462;11.000;2023-07-31T09:55:31;1.45;;;0.73;;
37288;SDS011;23174;49.462;11.000;2023-07-31T09:57:32;1.40;;;0.63;;
37288;SDS011;23174;49.462;11.000;2023-07-31T09:59:33;2.05;;;0.80;;
37288;SDS011;23174;49.462;11.000;2023-07-31T10:01:35;2.35;;;1.27;;
37288;SDS011;23174;49.462;11.000;2023-07-31T10:03:35;1.17;;;0.80;;
37288;SDS011;23174;49.462;11.000;2023-07-31T10:05:40;0.85;;;0.85;;
37288;SDS011;23174;49.462;11.000;2023-07-31T10:07:45;0.30;;;0.30;;
37288;SDS011;23174;49.462;11.000;2023-07-31T10:09:54;1.17;;;0.90;;
37288;SDS011;23174;49.462;11.000;2023-07-31T10:12:00;0.93;;;0.82;;
37288;SDS011;23174;49.462;11.000;2023-07-31T10:14:05;1.58;;;0.93;;
37288;SDS011;23174;49.462;11.000;2023-07-31T10:16:07;1.30;;;1.08;;
37288;SDS011;23174;49.462;11.000;2023-07-31T10:18:08;0.52;;;0.52;;
37288;SDS011;23174;49.462;11.000;2023-07-31T10:20:09;1.02;;;0.32;;
37288;SDS011;23174;49.462;11.000;2023-07-31T10:22:10;0.77;;;0.73;;
37288;SDS011;23174;49.462;11.000;2023-07-31T10:24:12;1.85;;;0.80;;
37288;SDS011;23174;49.462;11.000;2023-07-31T10:26:13;0.40;;;0.40;;
37288;SDS011;23174;49.462;11.000;2023-07-31T10:28:15;0.57;;;0.57;;
37288;SDS011;23174;49.462;11.000;2023-07-31T10:30:16;4.20;;;1.48;;
37288;SDS011;23174;49.462;11.000;2023-07-31T10:32:18;1.08;;;0.52;;
37288;SDS011;23174;49.462;11.000;2023-07-31T10:34:20;0.38;;;0.35;;
37288;SDS011;23174;49.462;11.000;2023-07-31T10:36:21;0.65;;;0.30;;
37288;SDS011;23174;49.462;11.000;2023-07-31T10:38:23;0.60;;;0.50;;
37288;SDS011;23174;49.462;11.000;2023-07-31T10:40:25;0.70;;;0.65;;
37288;SDS011;23174;49.462;11.000;2023-07-31T10:42:27;0.73;;;0.73;;
37288;SDS011;23174;49.462;11.000;2023-07-31T10:44:30;0.88;;;0.88;;
37288;SDS011;23174;49.462;11.000;2023-07-31T10:46:32;0.93;;;0.93;;
37288;SDS011;23174;49.462;11.000;2023-07-31T10:48:33;0.30;;;0.30;;
37288;SDS011;23174;49.462;11.000;2023-07-31T10:50:38;0.15;;;0.15;;
37288;SDS011;23174;49.462;11.000;2023-07-31T10:52:48;0.77;;;0.77;;
37288;SDS011;23174;49.462;11.000;2023-07-31T10:54:50;2.65;;;0.68;;
37288;SDS011;23174;49.462;11.000;2023-07-31T10:57:23;0.85;;;0.85;;
37288;SDS011;23174;49.462;11.000;2023-07-31T10:59:28;0.82;;;0.65;;
37288;SDS011;23174;49.462;11.000;2023-07-31T11:03:57;0.57;;;0.57;;
37288;SDS011;23174;49.462;11.000;2023-07-31T11:06:01;0.93;;;0.82;;
37288;SDS011;23174;49.462;11.000;2023-07-31T11:08:09;2.30;;;0.52;;
37288;SDS011;23174;49.462;11.000;2023-07-31T11:10:33;1.83;;;1.00;;
37288;SDS011;23174;49.462;11.000;2023-07-31T11:12:34;0.90;;;0.90;;
37288;SDS011;23174;49.462;11.000;2023-07-31T11:14:34;0.93;;;0.55;;
37288;SDS011;23174;49.462;11.000;2023-07-31T11:16:35;5.32;;;0.80;;
37288;SDS011;23174;49.462;11.000;2023-07-31T11:18:37;0.80;;;0.80;;
37288;SDS011;23174;49.462;11.000;2023-07-31T11:20:39;0.63;;;0.60;;
37288;SDS011;23174;49.462;11.000;2023-07-31T11:22:40;5.45;;;0.73;;
37288;SDS011;23174;49.462;11.000;2023-07-31T11:24:41;1.00;;;0.73;;
37288;SDS011;23174;49.462;11.000;2023-07-31T11:26:51;1.13;;;0.52;;
37288;SDS011;23174;49.462;11.000;2023-07-31T11:28:52;1.10;;;0.52;;
37288;SDS011;23174;49.462;11.000;2023-07-31T11:30:54;0.43;;;0.43;;
37288;SDS011;23174;49.462;11.000;2023-07-31T11:32:55;1.23;;;0.38;;
37288;SDS011;23174;49.462;11.000;2023-07-31T11:34:56;0.85;;;0.68;;
37288;SDS011;23174;49.462;11.000;2023-07-31T11:36:57;0.30;;;0.30;;
37288;SDS011;23174;49.462;11.000;2023-07-31T11:39:04;0.75;;;0.32;;
37288;SDS011;23174;49.462;11.000;2023-07-31T11:41:06;0.30;;;0.30;;
37288;SDS011;23174;49.462;11.000;2023-07-31T11:43:07;0.52;;;0.52;;
37288;SDS011;23174;49.462;11.000;2023-07-31T11:45:08;0.35;;;0.35;;
37288;SDS011;23174;49.462;11.000;2023-07-31T11:47:09;4.38;;;1.42;;
37288;SDS011;23174;49.462;11.000;2023-07-31T11:49:10;0.73;;;0.73;;
37288;SDS011;23174;49.462;11.000;2023-07-31T11:51:10;0.68;;;0.68;;
37288;SDS011;23174;49.462;11.000;2023-07-31T11:53:13;0.47;;;0.47;;
37288;SDS011;23174;49.462;11.000;2023-07-31T11:55:14;1.50;;;1.17;;
37288;SDS011;23174;49.462;11.000;2023-07-31T11:57:15;0.95;;;0.93;;
37288;SDS011;23174;49.462;11.000;2023-07-31T11:59:16;0.68;;;0.57;;
37288;SDS011;23174;49.462;11.000;2023-07-31T12:01:20;1.67;;;0.85;;
37288;SDS011;23174;49.462;11.000;2023-07-31T12:03:22;2.47;;;0.50;;
37288;SDS011;23174;49.462;11.000;2023-07-31T12:05:23;0.43;;;0.22;;
37288;SDS011;23174;49.462;11.000;2023-07-31T12:07:24;0.80;;;0.80;;
37288;SDS011;23174;49.462;11.000;2023-07-31T12:09:24;0.95;;;0.30;;
37288;SDS011;23174;49.462;11.000;2023-07-31T12:11:26;0.10;;;0.10;;
37288;SDS011;23174;49.462;11.000;2023-07-31T12:13:27;0.85;;;0.63;;